createdAt,value
2019-02-24T00:00:35.707Z,1.60
2019-02-24T00:03:01.783Z,1.82
2019-02-24T00:05:27.855Z,2.22
2019-02-24T00:07:53.925Z,1.32
2019-02-24T00:10:20.012Z,2.33
2019-02-24T00:12:46.079Z,1.60
2019-02-24T00:15:12.173Z,2.58
2019-02-24T00:17:38.243Z,2.08
2019-02-24T00:20:04.654Z,1.65
2019-02-24T00:22:30.735Z,2.12
2019-02-24T00:24:56.799Z,2.05
2019-02-24T00:27:22.896Z,2.33
2019-02-24T00:29:48.974Z,1.95
2019-02-24T00:32:15.046Z,2.37
2019-02-24T00:34:41.140Z,2.70
2019-02-24T00:37:07.225Z,2.30
2019-02-24T00:39:33.309Z,1.90
2019-02-24T00:41:59.482Z,2.25
2019-02-24T00:44:25.646Z,1.90
2019-02-24T00:46:51.722Z,2.25
2019-02-24T00:49:17.787Z,2.02
2019-02-24T00:51:43.871Z,1.82
2019-02-24T00:54:09.953Z,1.70
2019-02-24T00:56:36.031Z,2.02
2019-02-24T00:59:02.094Z,2.05
2019-02-24T01:01:28.197Z,2.10
2019-02-24T01:03:54.331Z,2.45
2019-02-24T01:06:20.413Z,1.55
2019-02-24T01:08:47.307Z,2.50
2019-02-24T01:11:13.391Z,2.35
2019-02-24T01:13:39.462Z,3.15
2019-02-24T01:16:05.572Z,1.60
2019-02-24T01:18:31.639Z,1.90
2019-02-24T01:20:57.742Z,1.87
2019-02-24T01:23:23.838Z,2.22
2019-02-24T01:25:49.895Z,2.65
2019-02-24T01:28:24.695Z,1.62
2019-02-24T01:30:43.947Z,2.55
2019-02-24T01:33:10.019Z,2.12
2019-02-24T01:35:36.088Z,2.35
2019-02-24T01:38:02.171Z,1.92
2019-02-24T01:40:28.230Z,2.83
2019-02-24T01:42:54.441Z,3.50
2019-02-24T01:45:20.503Z,2.65
2019-02-24T01:47:46.604Z,2.10
2019-02-24T01:50:12.677Z,3.00
2019-02-24T01:52:38.766Z,2.60
2019-02-24T01:55:04.939Z,2.25
2019-02-24T01:57:31.018Z,1.95
2019-02-24T01:59:57.080Z,2.27
2019-02-24T02:02:23.200Z,2.10
2019-02-24T02:04:49.260Z,1.75
2019-02-24T02:07:15.343Z,2.15
2019-02-24T02:10:01.300Z,1.95
2019-02-24T02:12:27.380Z,2.25
2019-02-24T02:14:53.452Z,2.10
2019-02-24T02:17:19.539Z,1.95
2019-02-24T02:19:45.603Z,1.72
2019-02-24T02:22:11.687Z,2.33
2019-02-24T02:24:37.747Z,1.87
2019-02-24T02:27:03.831Z,2.67
2019-02-24T02:29:30.010Z,1.35
2019-02-24T02:31:56.182Z,2.25
2019-02-24T02:34:22.362Z,2.05
2019-02-24T02:36:48.425Z,2.00
2019-02-24T02:39:14.511Z,3.02
2019-02-24T02:41:40.585Z,2.10
2019-02-24T02:44:06.667Z,2.25
2019-02-24T02:46:32.736Z,2.80
2019-02-24T02:48:58.835Z,2.60
2019-02-24T02:51:24.993Z,2.02
2019-02-24T02:53:51.081Z,2.30
2019-02-24T02:56:17.267Z,1.82
2019-02-24T02:58:43.360Z,2.00
2019-02-24T03:01:09.424Z,2.10
2019-02-24T03:03:35.500Z,2.20
2019-02-24T03:06:03.467Z,1.80
2019-02-24T03:08:46.774Z,2.27
2019-02-24T03:11:14.043Z,2.30
2019-02-24T03:13:40.131Z,2.80
2019-02-24T03:16:06.188Z,1.80
2019-02-24T03:18:32.271Z,1.90
2019-02-24T03:20:58.330Z,1.50
2019-02-24T03:23:24.411Z,2.33
2019-02-24T03:25:50.484Z,1.60
2019-02-24T03:28:16.568Z,1.82
2019-02-24T03:30:42.668Z,1.80
2019-02-24T03:33:08.805Z,1.57
2019-02-24T03:35:34.953Z,1.40
2019-02-24T03:38:01.026Z,2.35
2019-02-24T03:40:27.103Z,1.70
2019-02-24T03:42:53.183Z,2.30
2019-02-24T03:45:19.260Z,2.37
2019-02-24T03:47:45.328Z,2.42
2019-02-24T03:50:11.419Z,2.87
2019-02-24T03:52:37.488Z,1.62
2019-02-24T03:55:03.803Z,2.30
2019-02-24T03:57:29.887Z,1.90
2019-02-24T03:59:56.063Z,2.33
2019-02-24T04:02:22.130Z,1.80
2019-02-24T04:04:48.222Z,1.72
2019-02-24T04:07:14.283Z,2.05
2019-02-24T04:09:40.371Z,2.67
2019-02-24T04:12:06.434Z,2.20
2019-02-24T04:14:32.510Z,2.60
2019-02-24T04:17:18.472Z,2.00
2019-02-24T04:19:44.552Z,1.65
2019-02-24T04:22:10.617Z,1.67
2019-02-24T04:24:36.691Z,1.90
2019-02-24T04:27:02.771Z,2.15
2019-02-24T04:29:28.851Z,1.72
2019-02-24T04:31:54.941Z,1.80
2019-02-24T04:34:21.019Z,1.95
2019-02-24T04:36:47.078Z,2.45
2019-02-24T04:39:13.146Z,1.77
2019-02-24T04:41:39.335Z,1.80
2019-02-24T04:44:05.397Z,2.17
2019-02-24T04:46:31.485Z,1.90
2019-02-24T04:48:57.543Z,1.85
2019-02-24T04:51:23.627Z,2.00
2019-02-24T04:53:49.697Z,1.98
2019-02-24T04:56:15.797Z,2.25
2019-02-24T04:58:41.866Z,2.55
2019-02-24T05:01:07.932Z,2.60
2019-02-24T05:03:34.035Z,1.70
2019-02-24T05:06:00.098Z,2.42
2019-02-24T05:08:26.187Z,2.85
2019-02-24T05:10:52.349Z,2.33
2019-02-24T05:13:18.426Z,2.67
2019-02-24T05:15:44.491Z,1.30
2019-02-24T05:18:10.599Z,2.65
2019-02-24T05:20:36.663Z,1.47
2019-02-24T05:23:02.793Z,1.92
2019-02-24T05:25:28.873Z,3.17
2019-02-24T05:27:54.947Z,2.20
2019-02-24T05:30:21.031Z,2.02
2019-02-24T05:32:47.101Z,1.40
2019-02-24T05:35:13.191Z,2.40
2019-02-24T05:37:40.973Z,1.70
2019-02-24T05:40:07.140Z,2.58
2019-02-24T05:42:33.226Z,2.00
2019-02-24T05:44:59.311Z,2.35
2019-02-24T05:47:25.386Z,2.47
2019-02-24T05:49:51.443Z,2.33
2019-02-24T05:52:17.536Z,2.12
2019-02-24T05:54:43.599Z,2.45
2019-02-24T05:57:09.697Z,2.17
2019-02-24T05:59:35.767Z,2.17
2019-02-24T06:02:01.853Z,2.67
2019-02-24T06:04:27.913Z,3.25
2019-02-24T06:06:54.003Z,2.65
2019-02-24T06:09:20.084Z,4.05
2019-02-24T06:11:46.141Z,2.22
2019-02-24T06:14:12.241Z,3.42
2019-02-24T06:16:38.398Z,2.67
2019-02-24T06:19:04.493Z,2.50
2019-02-24T06:21:30.552Z,2.75
2019-02-24T06:23:56.650Z,1.98
2019-02-24T06:26:22.707Z,2.33
2019-02-24T06:28:48.781Z,3.02
2019-02-24T06:31:14.881Z,2.60
2019-02-24T06:33:40.964Z,2.98
2019-02-24T06:36:07.052Z,3.65
2019-02-24T06:38:33.119Z,2.17
2019-02-24T06:40:59.946Z,2.08
2019-02-24T06:43:26.191Z,2.80
2019-02-24T06:45:52.286Z,2.92
2019-02-24T06:48:18.354Z,2.77
2019-02-24T06:50:55.165Z,2.83
2019-02-24T06:53:21.321Z,2.33
2019-02-24T06:55:47.407Z,2.37
2019-02-24T06:58:13.615Z,2.05
2019-02-24T07:00:39.675Z,3.15
2019-02-24T07:03:05.759Z,1.92
2019-02-24T07:05:31.923Z,2.20
2019-02-24T07:07:57.995Z,3.30
2019-02-24T07:10:24.570Z,2.90
2019-02-24T07:12:50.643Z,4.58
2019-02-24T07:15:16.716Z,3.42
2019-02-24T07:17:42.791Z,3.83
2019-02-24T07:20:09.009Z,3.17
2019-02-24T07:22:35.190Z,3.60
2019-02-24T07:25:01.350Z,2.67
2019-02-24T07:27:27.410Z,3.42
2019-02-24T07:29:53.505Z,3.30
2019-02-24T07:32:19.558Z,3.62
2019-02-24T07:34:45.642Z,2.83
2019-02-24T07:37:13.215Z,2.85
2019-02-24T07:39:39.607Z,3.42
2019-02-24T07:42:05.666Z,3.30
2019-02-24T07:44:31.757Z,4.55
2019-02-24T07:46:57.918Z,3.40
2019-02-24T07:49:24.019Z,3.90
2019-02-24T07:51:50.096Z,2.50
2019-02-24T07:54:16.330Z,3.20
2019-02-24T07:56:42.406Z,3.55
2019-02-24T07:59:08.491Z,4.00
2019-02-24T08:01:34.565Z,3.20
2019-02-24T08:04:00.647Z,3.50
2019-02-24T08:06:26.723Z,3.60
2019-02-24T08:08:52.823Z,3.37
2019-02-24T08:11:18.902Z,3.40
2019-02-24T08:13:44.963Z,3.55
2019-02-24T08:16:11.044Z,3.83
2019-02-24T08:18:37.106Z,4.20
2019-02-24T08:21:03.291Z,3.47
2019-02-24T08:23:29.462Z,3.30
2019-02-24T08:25:55.563Z,3.77
2019-02-24T08:28:21.627Z,3.42
2019-02-24T08:30:47.714Z,4.30
2019-02-24T08:33:13.788Z,4.50
2019-02-24T08:35:40.463Z,4.33
2019-02-24T08:38:06.531Z,3.50
2019-02-24T08:40:32.613Z,3.90
2019-02-24T08:42:58.701Z,3.75
2019-02-24T08:45:24.803Z,3.45
2019-02-24T08:47:50.979Z,3.60
2019-02-24T08:50:17.090Z,4.30
2019-02-24T08:52:43.162Z,3.33
2019-02-24T08:55:09.247Z,3.42
2019-02-24T08:57:35.318Z,4.00
2019-02-24T09:00:01.997Z,3.45
2019-02-24T09:02:28.066Z,3.60
2019-02-24T09:04:54.227Z,4.08
2019-02-24T09:07:20.279Z,3.42
2019-02-24T09:09:46.380Z,3.05
2019-02-24T09:12:12.461Z,3.20
2019-02-24T09:14:38.563Z,3.40
2019-02-24T09:17:04.636Z,3.80
2019-02-24T09:19:30.719Z,3.00
2019-02-24T09:21:56.819Z,3.72
2019-02-24T09:24:22.899Z,4.40
2019-02-24T09:26:48.992Z,4.60
2019-02-24T09:29:15.062Z,3.70
2019-02-24T09:31:41.130Z,4.97
2019-02-24T09:34:07.252Z,4.35
2019-02-24T09:36:33.430Z,3.25
2019-02-24T09:38:59.500Z,3.42
2019-02-24T09:41:25.593Z,3.52
2019-02-24T09:43:51.652Z,3.30
2019-02-24T09:46:17.739Z,2.77
2019-02-24T09:48:43.826Z,4.55
2019-02-24T09:51:10.004Z,4.28
2019-02-24T09:53:36.067Z,3.70
2019-02-24T09:56:02.159Z,3.98
2019-02-24T09:58:28.235Z,3.27
2019-02-24T10:00:54.314Z,3.60
2019-02-24T10:03:20.387Z,3.98
2019-02-24T10:05:46.476Z,3.52
2019-02-24T10:08:12.638Z,4.37
2019-02-24T10:10:38.716Z,3.42
2019-02-24T10:13:04.791Z,4.03
2019-02-24T10:15:30.894Z,4.10
2019-02-24T10:17:56.959Z,3.65
2019-02-24T10:20:23.034Z,4.37
2019-02-24T10:22:49.115Z,4.05
2019-02-24T10:25:15.185Z,3.50
2019-02-24T10:27:41.256Z,4.28
2019-02-24T10:30:11.780Z,3.47
2019-02-24T10:32:37.868Z,3.05
2019-02-24T10:35:05.354Z,3.65
2019-02-24T10:37:31.427Z,3.70
2019-02-24T10:39:57.497Z,3.67
2019-02-24T10:42:23.582Z,3.77
2019-02-24T10:44:49.654Z,3.15
2019-02-24T10:47:15.722Z,4.35
2019-02-24T10:49:41.811Z,3.85
2019-02-24T10:52:07.946Z,3.22
2019-02-24T10:54:34.104Z,5.28
2019-02-24T10:57:00.192Z,3.98
2019-02-24T10:59:26.254Z,3.75
2019-02-24T11:01:52.347Z,4.33
2019-02-24T11:04:18.422Z,4.20
2019-02-24T11:06:44.566Z,3.93
2019-02-24T11:09:10.740Z,3.72
2019-02-24T11:11:36.815Z,3.70
2019-02-24T11:14:03.024Z,5.35
2019-02-24T11:16:29.094Z,4.10
2019-02-24T11:18:55.187Z,4.20
2019-02-24T11:21:21.293Z,3.93
2019-02-24T11:23:47.392Z,3.67
2019-02-24T11:26:13.479Z,3.25
2019-02-24T11:28:39.553Z,4.50
2019-02-24T11:31:05.650Z,3.77
2019-02-24T11:33:31.710Z,3.30
2019-02-24T11:35:57.794Z,3.10
2019-02-24T11:38:23.852Z,4.00
2019-02-24T11:40:50.038Z,3.40
2019-02-24T11:43:16.123Z,3.80
2019-02-24T11:45:42.195Z,3.70
2019-02-24T11:48:08.306Z,4.83
2019-02-24T11:50:34.382Z,3.70
2019-02-24T11:53:00.474Z,3.77
2019-02-24T11:55:26.947Z,4.23
2019-02-24T11:57:53.014Z,4.60
2019-02-24T12:00:19.103Z,4.60
2019-02-24T12:02:45.165Z,4.57
2019-02-24T12:05:11.359Z,4.27
2019-02-24T12:07:37.426Z,3.90
2019-02-24T12:10:08.952Z,4.27
2019-02-24T12:12:35.015Z,3.70
2019-02-24T12:15:01.120Z,4.10
2019-02-24T12:17:27.200Z,4.13
2019-02-24T12:19:53.260Z,4.03
2019-02-24T12:22:19.370Z,4.10
2019-02-24T12:24:45.450Z,3.80
2019-02-24T12:27:11.531Z,3.83
2019-02-24T12:29:37.603Z,4.97
2019-02-24T12:32:03.687Z,4.90
2019-02-24T12:34:29.756Z,4.22
2019-02-24T12:36:55.829Z,3.80
2019-02-24T12:39:21.916Z,3.90
2019-02-24T12:41:47.987Z,4.22
2019-02-24T12:44:14.181Z,4.22
2019-02-24T12:46:40.266Z,4.40
2019-02-24T12:49:06.392Z,3.70
2019-02-24T12:51:32.473Z,3.97
2019-02-24T12:53:58.555Z,3.70
2019-02-24T12:56:24.614Z,3.93
2019-02-24T12:58:50.686Z,4.70
2019-02-24T13:01:16.778Z,3.95
2019-02-24T13:03:42.858Z,3.15
2019-02-24T13:06:08.947Z,3.27
2019-02-24T13:08:35.035Z,3.60
2019-02-24T13:11:01.104Z,4.05
2019-02-24T13:13:27.276Z,4.05
2019-02-24T13:15:53.370Z,3.97
2019-02-24T13:18:19.467Z,3.50
2019-02-24T13:20:45.554Z,3.77
2019-02-24T13:23:11.631Z,4.60
2019-02-24T13:25:37.714Z,3.65
2019-02-24T13:28:03.781Z,3.33
2019-02-24T13:30:29.883Z,3.58
2019-02-24T13:32:55.947Z,3.60
2019-02-24T13:35:22.046Z,4.37
2019-02-24T13:37:48.118Z,3.47
2019-02-24T13:40:15.411Z,3.65
2019-02-24T13:42:41.483Z,3.47
2019-02-24T13:45:10.685Z,2.90
2019-02-24T13:47:36.767Z,3.73
2019-02-24T13:50:03.876Z,3.30
2019-02-24T13:52:29.962Z,2.95
2019-02-24T13:54:56.071Z,2.80
2019-02-24T13:57:22.147Z,2.50
2019-02-24T13:59:48.224Z,2.73
2019-02-24T14:02:14.292Z,3.17
2019-02-24T14:04:40.387Z,2.47
2019-02-24T14:07:06.458Z,3.23
2019-02-24T14:09:32.529Z,2.60
2019-02-24T14:11:58.721Z,2.63
2019-02-24T14:14:24.791Z,2.33
2019-02-24T14:16:50.882Z,3.40
2019-02-24T14:19:16.966Z,2.87
2019-02-24T14:21:43.042Z,2.50
2019-02-24T14:24:09.134Z,2.67
2019-02-24T14:26:35.290Z,2.77
2019-02-24T14:29:01.507Z,2.63
2019-02-24T14:31:27.695Z,2.67
2019-02-24T14:33:53.791Z,2.60
2019-02-24T14:36:19.962Z,2.50
2019-02-24T14:38:46.054Z,3.00
2019-02-24T14:41:12.139Z,2.47
2019-02-24T14:43:38.254Z,3.00
2019-02-24T14:46:04.332Z,2.40
2019-02-24T14:48:30.511Z,3.10
2019-02-24T14:50:56.591Z,3.30
2019-02-24T14:53:22.683Z,2.63
2019-02-24T14:55:48.786Z,2.70
2019-02-24T14:58:14.957Z,3.30
2019-02-24T15:00:41.062Z,2.83
2019-02-24T15:03:07.160Z,3.23
2019-02-24T15:05:33.310Z,3.30
2019-02-24T15:07:59.428Z,2.50
2019-02-24T15:10:25.595Z,3.20
2019-02-24T15:12:51.685Z,3.40
2019-02-24T15:15:33.088Z,2.80
2019-02-24T15:17:56.667Z,3.43
2019-02-24T15:20:23.131Z,3.17
2019-02-24T15:22:49.199Z,3.10
2019-02-24T15:25:18.291Z,3.40
2019-02-24T15:27:44.506Z,3.20
2019-02-24T15:30:32.326Z,2.83
2019-02-24T15:32:58.419Z,3.17
2019-02-24T15:35:24.487Z,3.83
2019-02-24T15:37:50.567Z,3.10
2019-02-24T15:40:16.638Z,2.97
2019-02-24T15:42:42.701Z,2.87
2019-02-24T15:45:09.306Z,2.87
2019-02-24T15:47:35.406Z,3.03
2019-02-24T15:50:01.495Z,3.20
2019-02-24T15:52:27.687Z,3.33
2019-02-24T15:54:53.762Z,4.80
2019-02-24T15:57:19.829Z,4.00
2019-02-24T15:59:45.929Z,3.50
2019-02-24T16:02:12.087Z,3.10
2019-02-24T16:04:38.188Z,3.23
2019-02-24T16:07:04.265Z,3.53
2019-02-24T16:09:30.344Z,3.33
2019-02-24T16:11:56.435Z,3.60
2019-02-24T16:14:22.514Z,2.67
2019-02-24T16:16:48.592Z,2.60
2019-02-24T16:19:14.678Z,3.50
2019-02-24T16:21:40.859Z,2.57
2019-02-24T16:24:06.952Z,2.87
2019-02-24T16:26:33.025Z,3.00
2019-02-24T16:28:59.110Z,2.43
2019-02-24T16:31:25.175Z,3.00
2019-02-24T16:33:51.271Z,2.60
2019-02-24T16:36:17.366Z,3.20
2019-02-24T16:38:43.434Z,2.80
2019-02-24T16:41:09.528Z,3.25
2019-02-24T16:43:35.610Z,2.50
2019-02-24T16:46:01.801Z,2.35
2019-02-24T16:48:27.879Z,2.33
2019-02-24T16:50:53.960Z,2.47
2019-02-24T16:53:20.039Z,3.25
2019-02-24T16:55:46.267Z,2.15
2019-02-24T16:58:12.418Z,2.42
2019-02-24T17:00:38.601Z,3.87
2019-02-24T17:03:04.675Z,2.37
2019-02-24T17:05:31.084Z,2.80
2019-02-24T17:07:57.132Z,2.85
2019-02-24T17:10:28.455Z,3.60
2019-02-24T17:12:55.328Z,3.70
2019-02-24T17:15:21.406Z,3.40
2019-02-24T17:17:47.475Z,4.10
2019-02-24T17:20:21.791Z,4.55
2019-02-24T17:22:47.858Z,4.45
2019-02-24T17:25:13.939Z,4.25
2019-02-24T17:27:40.002Z,3.70
2019-02-24T17:30:09.591Z,4.33
2019-02-24T17:32:35.663Z,3.85
2019-02-24T17:35:01.856Z,3.52
2019-02-24T17:37:27.913Z,3.35
2019-02-24T17:39:54.010Z,3.70
2019-02-24T17:42:20.163Z,2.87
2019-02-24T17:44:46.278Z,3.37
2019-02-24T17:47:12.362Z,3.37
2019-02-24T17:49:38.423Z,3.62
2019-02-24T17:52:04.511Z,4.00
2019-02-24T17:54:30.570Z,4.10
2019-02-24T17:56:56.667Z,3.30
2019-02-24T17:59:22.732Z,3.40
2019-02-24T18:01:48.819Z,4.15
2019-02-24T18:04:14.887Z,4.28
2019-02-24T18:06:40.965Z,4.17
2019-02-24T18:09:07.118Z,3.33
2019-02-24T18:11:33.207Z,3.87
2019-02-24T18:13:59.270Z,5.45
2019-02-24T18:16:25.347Z,4.85
2019-02-24T18:18:51.435Z,9.05
2019-02-24T18:21:17.514Z,5.10
2019-02-24T18:23:43.591Z,3.55
2019-02-24T18:26:09.667Z,3.12
2019-02-24T18:28:35.761Z,3.47
2019-02-24T18:31:02.023Z,4.45
2019-02-24T18:33:28.209Z,3.85
2019-02-24T18:35:54.263Z,4.60
2019-02-24T18:38:20.383Z,8.20
2019-02-24T18:40:46.442Z,8.30
2019-02-24T18:43:12.515Z,6.70
2019-02-24T18:45:38.594Z,6.60
2019-02-24T18:48:04.678Z,9.85
2019-02-24T18:50:30.786Z,7.47
2019-02-24T18:52:56.850Z,7.60
2019-02-24T18:55:22.918Z,6.75
2019-02-24T18:57:48.996Z,8.53
2019-02-24T19:00:22.107Z,8.83
2019-02-24T19:02:48.190Z,7.47
2019-02-24T19:05:14.359Z,6.58
2019-02-24T19:07:40.463Z,5.97
2019-02-24T19:10:12.273Z,7.00
2019-02-24T19:12:38.334Z,5.60
2019-02-24T19:15:10.143Z,5.72
2019-02-24T19:17:36.433Z,5.97
2019-02-24T19:20:05.683Z,5.05
2019-02-24T19:22:31.891Z,4.10
2019-02-24T19:24:57.963Z,4.80
2019-02-24T19:27:24.084Z,4.75
2019-02-24T19:29:50.173Z,4.90
2019-02-24T19:32:16.347Z,6.30
2019-02-24T19:34:42.418Z,5.03
2019-02-24T19:37:08.515Z,6.15
2019-02-24T19:39:34.691Z,5.80
2019-02-24T19:42:00.747Z,5.35
2019-02-24T19:44:26.839Z,6.53
2019-02-24T19:46:52.909Z,4.95
2019-02-24T19:49:19.058Z,4.97
2019-02-24T19:51:45.222Z,4.90
2019-02-24T19:54:11.313Z,5.50
2019-02-24T19:56:37.410Z,4.25
2019-02-24T19:59:03.592Z,4.08
2019-02-24T20:01:29.664Z,4.83
2019-02-24T20:03:55.740Z,4.17
2019-02-24T20:06:21.822Z,4.45
2019-02-24T20:08:47.888Z,5.65
2019-02-24T20:11:13.975Z,4.78
2019-02-24T20:13:40.048Z,7.05
2019-02-24T20:16:06.130Z,5.70
2019-02-24T20:18:32.214Z,5.17
2019-02-24T20:20:58.411Z,6.37
2019-02-24T20:23:24.490Z,5.10
2019-02-24T20:25:50.586Z,5.05
2019-02-24T20:28:16.647Z,6.08
2019-02-24T20:30:42.729Z,4.80
2019-02-24T20:33:08.809Z,4.55
2019-02-24T20:35:34.906Z,4.45
2019-02-24T20:38:00.984Z,4.60
2019-02-24T20:40:27.079Z,4.78
2019-02-24T20:42:53.159Z,4.00
2019-02-24T20:45:20.555Z,4.97
2019-02-24T20:47:46.965Z,5.42
2019-02-24T20:50:19.111Z,4.60
2019-02-24T20:52:45.207Z,5.97
2019-02-24T20:55:11.285Z,5.00
2019-02-24T20:57:37.378Z,6.50
2019-02-24T21:00:27.955Z,8.30
2019-02-24T21:02:54.043Z,7.12
2019-02-24T21:05:20.112Z,8.85
2019-02-24T21:07:46.303Z,7.97
2019-02-24T21:10:12.468Z,7.53
2019-02-24T21:12:38.598Z,7.42
2019-02-24T21:15:08.379Z,9.20
2019-02-24T21:17:34.455Z,11.57
2019-02-24T21:20:00.582Z,13.03
2019-02-24T21:22:26.777Z,13.35
2019-02-24T21:24:52.895Z,12.98
2019-02-24T21:27:18.980Z,10.03
2019-02-24T21:29:45.092Z,10.50
2019-02-24T21:32:11.147Z,7.87
2019-02-24T21:34:37.311Z,7.47
2019-02-24T21:37:03.416Z,5.75
2019-02-24T21:39:29.505Z,5.53
2019-02-24T21:41:55.700Z,4.58
2019-02-24T21:44:21.793Z,5.25
2019-02-24T21:46:47.890Z,5.72
2019-02-24T21:49:14.067Z,4.30
2019-02-24T21:51:40.131Z,4.35
2019-02-24T21:54:06.216Z,4.37
2019-02-24T21:56:32.292Z,3.75
2019-02-24T21:58:58.390Z,4.17
2019-02-24T22:01:24.458Z,4.53
2019-02-24T22:03:50.535Z,4.53
2019-02-24T22:06:16.618Z,4.67
2019-02-24T22:08:42.691Z,5.25
2019-02-24T22:11:08.771Z,5.15
2019-02-24T22:13:35.374Z,4.40
2019-02-24T22:16:01.451Z,4.90
2019-02-24T22:18:27.525Z,3.87
2019-02-24T22:20:53.634Z,4.25
2019-02-24T22:23:19.788Z,5.62
2019-02-24T22:25:45.875Z,4.47
2019-02-24T22:28:11.943Z,4.40
2019-02-24T22:30:38.029Z,5.33
2019-02-24T22:33:04.096Z,4.55
2019-02-24T22:35:30.324Z,4.85
2019-02-24T22:37:56.390Z,4.53
2019-02-24T22:40:22.610Z,3.95
2019-02-24T22:42:48.667Z,4.55
2019-02-24T22:45:21.523Z,3.33
2019-02-24T22:47:47.580Z,5.30
2019-02-24T22:50:14.763Z,3.85
2019-02-24T22:52:40.940Z,4.00
2019-02-24T22:55:10.631Z,4.70
2019-02-24T22:57:36.795Z,4.20
2019-02-24T23:00:23.687Z,4.55
2019-02-24T23:02:50.264Z,4.85
2019-02-24T23:05:16.350Z,4.60
2019-02-24T23:07:42.418Z,5.65
2019-02-24T23:10:08.989Z,3.95
2019-02-24T23:12:35.067Z,4.72
2019-02-24T23:15:01.152Z,3.37
2019-02-24T23:17:27.324Z,4.28
2019-02-24T23:19:53.391Z,4.60
2019-02-24T23:22:19.470Z,4.97
2019-02-24T23:24:45.532Z,4.42
2019-02-24T23:27:11.692Z,3.75
2019-02-24T23:29:37.879Z,3.98
2019-02-24T23:32:03.942Z,4.28
2019-02-24T23:34:30.033Z,4.35
2019-02-24T23:36:56.102Z,4.30
2019-02-24T23:39:22.190Z,4.30
2019-02-24T23:41:48.295Z,4.20
2019-02-24T23:44:14.426Z,3.65
2019-02-24T23:46:40.486Z,4.20
2019-02-24T23:49:06.577Z,4.03
2019-02-24T23:51:32.650Z,3.95
2019-02-24T23:53:58.708Z,3.52
2019-02-24T23:56:24.790Z,4.37
2019-02-24T23:58:50.860Z,4.00
